createdAt,value
2023-01-28T00:00:53.302Z,3.25
2023-01-28T00:03:21.211Z,3.42
2023-01-28T00:05:48.949Z,3.60
2023-01-28T00:08:16.736Z,2.65
2023-01-28T00:10:45.911Z,2.92
2023-01-28T00:13:15.325Z,4.00
2023-01-28T00:15:43.403Z,4.55
2023-01-28T00:18:11.188Z,4.50
2023-01-28T00:20:38.975Z,2.63
2023-01-28T00:23:06.728Z,4.38
2023-01-28T00:25:34.467Z,3.47
2023-01-28T00:28:03.649Z,3.03
2023-01-28T00:30:31.396Z,3.22
2023-01-28T00:32:59.198Z,3.55
2023-01-28T00:35:26.972Z,2.92
2023-01-28T00:37:54.802Z,3.10
2023-01-28T00:40:22.605Z,3.22
2023-01-28T00:42:50.432Z,3.50
2023-01-28T00:45:19.578Z,2.90
2023-01-28T00:47:48.400Z,2.70
2023-01-28T00:50:16.774Z,2.97
2023-01-28T00:52:44.541Z,2.20
2023-01-28T00:55:12.798Z,3.30
2023-01-28T00:57:42.609Z,2.58
2023-01-28T01:00:11.848Z,3.65
2023-01-28T01:02:42.047Z,2.45
2023-01-28T01:05:10.513Z,3.20
2023-01-28T01:07:42.524Z,2.85
2023-01-28T01:10:13.078Z,2.40
2023-01-28T01:12:41.512Z,2.67
2023-01-28T01:15:11.230Z,2.92
2023-01-28T01:17:41.777Z,3.03
2023-01-28T01:20:14.512Z,2.70
2023-01-28T01:22:42.448Z,2.90
2023-01-28T01:25:11.371Z,2.88
2023-01-28T01:27:39.305Z,3.30
2023-01-28T01:30:09.224Z,2.53
2023-01-28T01:32:37.169Z,3.05
2023-01-28T01:35:08.082Z,3.25
2023-01-28T01:37:36.989Z,3.10
2023-01-28T01:40:06.099Z,2.70
2023-01-28T01:42:34.466Z,2.85
2023-01-28T01:45:04.247Z,3.40
2023-01-28T01:47:43.088Z,3.22
2023-01-28T01:50:19.746Z,4.00
2023-01-28T01:52:51.495Z,3.22
2023-01-28T01:55:22.343Z,3.03
2023-01-28T01:57:52.980Z,3.25
2023-01-28T02:00:21.266Z,3.13
2023-01-28T02:02:52.303Z,2.72
2023-01-28T02:05:23.515Z,3.75
2023-01-28T02:07:55.573Z,3.05
2023-01-28T02:10:25.142Z,3.55
2023-01-28T02:12:57.979Z,3.53
2023-01-28T02:15:29.788Z,2.58
2023-01-28T02:17:58.410Z,3.67
2023-01-28T02:20:43.743Z,3.28
2023-01-28T02:23:29.335Z,2.47
2023-01-28T02:26:26.329Z,1.80
2023-01-28T02:29:04.757Z,3.08
2023-01-28T02:31:39.971Z,2.60
2023-01-28T02:34:15.595Z,2.80
2023-01-28T02:36:49.935Z,3.42
2023-01-28T02:39:21.585Z,2.88
2023-01-28T02:41:54.652Z,2.85
2023-01-28T02:44:23.864Z,3.50
2023-01-28T02:47:11.845Z,2.70
2023-01-28T02:49:43.971Z,3.03
2023-01-28T02:52:44.921Z,2.92
2023-01-28T02:55:21.354Z,2.47
2023-01-28T02:58:01.493Z,3.05
2023-01-28T03:00:41.053Z,2.35
2023-01-28T03:03:17.899Z,3.20
2023-01-28T03:06:03.722Z,2.67
2023-01-28T03:08:53.948Z,3.72
2023-01-28T03:11:40.215Z,4.10
2023-01-28T03:14:27.830Z,3.28
2023-01-28T03:17:18.129Z,4.38
2023-01-28T03:20:04.469Z,3.85
2023-01-28T03:22:52.925Z,2.55
2023-01-28T03:25:40.031Z,3.78
2023-01-28T03:28:29.387Z,3.97
2023-01-28T03:31:24.131Z,3.67
2023-01-28T03:34:16.990Z,2.92
2023-01-28T03:36:50.345Z,3.88
2023-01-28T03:39:39.424Z,4.10
2023-01-28T03:42:12.010Z,3.95
2023-01-28T03:45:11.940Z,3.75
2023-01-28T03:47:40.733Z,4.03
2023-01-28T03:50:12.748Z,3.25
2023-01-28T03:52:50.796Z,3.75
2023-01-28T03:55:26.210Z,4.20
2023-01-28T03:57:54.445Z,3.35
2023-01-28T04:00:23.316Z,4.22
2023-01-28T04:02:51.282Z,4.10
2023-01-28T04:05:22.730Z,4.07
2023-01-28T04:07:52.129Z,4.15
2023-01-28T04:10:28.533Z,3.65
2023-01-28T04:13:02.824Z,3.33
2023-01-28T04:15:31.827Z,3.67
2023-01-28T04:18:00.784Z,3.40
2023-01-28T04:20:33.202Z,5.47
2023-01-28T04:23:02.675Z,3.42
2023-01-28T04:25:31.106Z,4.50
2023-01-28T04:27:59.306Z,3.80
2023-01-28T04:30:30.067Z,4.72
2023-01-28T04:33:27.564Z,4.22
2023-01-28T04:36:02.066Z,4.30
2023-01-28T04:38:42.207Z,5.88
2023-01-28T04:41:22.946Z,5.20
2023-01-28T04:43:51.565Z,5.30
2023-01-28T04:46:37.698Z,6.45
2023-01-28T04:49:14.243Z,5.55
2023-01-28T04:52:09.700Z,4.45
2023-01-28T04:54:57.780Z,5.22
2023-01-28T04:57:25.866Z,6.13
2023-01-28T04:59:53.831Z,4.63
2023-01-28T05:02:21.613Z,5.68
2023-01-28T05:04:49.592Z,5.88
2023-01-28T05:07:38.093Z,4.68
2023-01-28T05:10:06.732Z,5.93
2023-01-28T05:12:34.531Z,5.00
2023-01-28T05:15:06.898Z,6.20
2023-01-28T05:17:36.503Z,5.93
2023-01-28T05:20:04.922Z,5.75
2023-01-28T05:22:35.202Z,5.53
2023-01-28T05:25:33.793Z,5.72
2023-01-28T05:28:01.602Z,5.40
2023-01-28T05:30:29.801Z,5.57
2023-01-28T05:32:58.727Z,5.63
2023-01-28T05:35:26.643Z,4.68
2023-01-28T05:37:54.504Z,5.10
2023-01-28T05:40:23.283Z,5.03
2023-01-28T05:42:53.497Z,5.57
2023-01-28T05:45:33.797Z,4.95
2023-01-28T05:48:09.524Z,5.43
2023-01-28T05:50:51.446Z,5.65
2023-01-28T05:53:21.850Z,6.05
2023-01-28T05:55:53.254Z,7.20
2023-01-28T05:58:22.817Z,5.68
2023-01-28T06:00:51.791Z,7.38
2023-01-28T06:03:24.239Z,6.27
2023-01-28T06:05:52.623Z,6.03
2023-01-28T06:08:20.483Z,5.65
2023-01-28T06:10:48.994Z,5.72
2023-01-28T06:13:17.112Z,6.88
2023-01-28T06:16:04.920Z,6.22
2023-01-28T06:19:00.555Z,5.88
2023-01-28T06:21:30.139Z,6.93
2023-01-28T06:23:59.099Z,5.85
2023-01-28T06:26:26.905Z,6.03
2023-01-28T06:28:54.741Z,7.22
2023-01-28T06:31:23.947Z,7.75
2023-01-28T06:33:51.792Z,6.55
2023-01-28T06:36:19.842Z,7.88
2023-01-28T06:38:47.739Z,7.07
2023-01-28T06:41:15.526Z,7.82
2023-01-28T06:43:43.266Z,8.13
2023-01-28T06:46:11.099Z,7.70
2023-01-28T06:48:40.244Z,8.20
2023-01-28T06:51:08.102Z,7.68
2023-01-28T06:53:36.766Z,7.72
2023-01-28T06:56:05.163Z,7.47
2023-01-28T06:58:32.908Z,8.02
2023-01-28T07:01:00.613Z,7.75
2023-01-28T07:03:28.750Z,8.23
2023-01-28T07:05:57.873Z,6.60
2023-01-28T07:08:25.685Z,8.45
2023-01-28T07:10:53.700Z,8.82
2023-01-28T07:13:21.459Z,9.35
2023-01-28T07:15:49.748Z,8.35
2023-01-28T07:18:17.502Z,9.27
2023-01-28T07:20:45.976Z,8.98
2023-01-28T07:23:15.067Z,8.90
2023-01-28T07:25:42.945Z,8.63
2023-01-28T07:28:11.146Z,9.23
2023-01-28T07:30:39.279Z,8.68
2023-01-28T07:33:07.070Z,9.38
2023-01-28T07:35:35.394Z,7.20
2023-01-28T07:38:03.282Z,8.30
2023-01-28T07:40:32.329Z,8.40
2023-01-28T07:43:00.922Z,9.15
2023-01-28T07:45:36.693Z,8.45
2023-01-28T07:48:06.722Z,9.38
2023-01-28T07:50:37.164Z,8.93
2023-01-28T07:53:06.635Z,8.50
2023-01-28T07:55:36.474Z,7.68
2023-01-28T07:58:05.973Z,8.20
2023-01-28T08:00:35.570Z,7.00
2023-01-28T08:03:06.117Z,9.38
2023-01-28T08:05:41.683Z,9.07
2023-01-28T08:08:10.288Z,7.03
2023-01-28T08:10:40.425Z,10.48
2023-01-28T08:13:10.712Z,9.95
2023-01-28T08:15:38.827Z,11.25
2023-01-28T08:18:09.470Z,7.78
2023-01-28T08:20:37.300Z,10.10
2023-01-28T08:23:09.644Z,11.25
2023-01-28T08:25:38.908Z,9.35
2023-01-28T08:28:07.535Z,9.70
2023-01-28T08:30:35.709Z,11.57
2023-01-28T08:33:07.735Z,7.53
2023-01-28T08:35:36.279Z,10.45
2023-01-28T08:38:05.317Z,11.90
2023-01-28T08:40:33.898Z,9.65
2023-01-28T08:43:03.576Z,8.90
2023-01-28T08:45:31.917Z,10.20
2023-01-28T08:48:01.641Z,12.10
2023-01-28T08:50:32.666Z,11.05
2023-01-28T08:53:02.204Z,11.43
2023-01-28T08:55:32.023Z,11.80
2023-01-28T08:58:04.969Z,11.07
2023-01-28T09:00:33.377Z,8.70
2023-01-28T09:03:01.423Z,10.32
2023-01-28T09:05:30.030Z,10.65
2023-01-28T09:07:57.746Z,11.90
2023-01-28T09:10:25.441Z,10.77
2023-01-28T09:12:53.122Z,10.85
2023-01-28T09:15:22.203Z,12.43
2023-01-28T09:17:50.015Z,13.10
2023-01-28T09:20:18.503Z,12.07
2023-01-28T09:22:46.252Z,12.50
2023-01-28T09:25:13.939Z,12.63
2023-01-28T09:27:44.698Z,11.13
2023-01-28T09:30:14.452Z,11.90
2023-01-28T09:32:43.747Z,11.02
2023-01-28T09:35:11.784Z,11.85
2023-01-28T09:37:39.532Z,9.40
2023-01-28T09:40:09.485Z,13.05
2023-01-28T09:42:53.854Z,12.13
2023-01-28T09:45:26.721Z,11.63
2023-01-28T09:47:59.750Z,11.45
2023-01-28T09:50:33.292Z,11.60
2023-01-28T09:53:05.890Z,10.63
2023-01-28T09:55:38.671Z,11.73
2023-01-28T09:58:07.570Z,13.00
2023-01-28T10:00:43.470Z,12.32
2023-01-28T10:03:29.604Z,10.63
2023-01-28T10:06:05.814Z,10.30
2023-01-28T10:08:52.431Z,12.75
2023-01-28T10:11:29.961Z,10.68
2023-01-28T10:14:05.859Z,10.63
2023-01-28T10:16:40.481Z,12.20
2023-01-28T10:19:17.883Z,14.20
2023-01-28T10:21:51.063Z,8.77
2023-01-28T10:24:26.196Z,7.97
2023-01-28T10:26:54.450Z,9.32
2023-01-28T10:29:26.182Z,11.05
2023-01-28T10:31:55.525Z,9.68
2023-01-28T10:34:24.948Z,9.13
2023-01-28T10:36:53.220Z,6.68
2023-01-28T10:39:24.768Z,7.60
2023-01-28T10:41:58.343Z,9.45
2023-01-28T10:44:33.650Z,9.43
2023-01-28T10:47:06.413Z,9.48
2023-01-28T10:49:42.674Z,10.15
2023-01-28T10:52:14.753Z,9.95
2023-01-28T10:54:42.794Z,8.15
2023-01-28T10:57:13.640Z,8.77
2023-01-28T10:59:42.769Z,9.13
2023-01-28T11:02:26.954Z,10.98
2023-01-28T11:05:06.388Z,6.82
2023-01-28T11:07:35.848Z,9.65
2023-01-28T11:10:03.701Z,8.98
2023-01-28T11:12:31.890Z,9.57
2023-01-28T11:15:01.600Z,9.38
2023-01-28T11:17:32.074Z,8.30
2023-01-28T11:20:11.160Z,6.57
2023-01-28T11:22:42.505Z,7.10
2023-01-28T11:25:19.256Z,6.82
2023-01-28T11:27:49.523Z,7.25
2023-01-28T11:30:24.748Z,6.47
2023-01-28T11:33:03.479Z,6.00
2023-01-28T11:35:33.119Z,5.80
2023-01-28T11:38:02.431Z,6.75
2023-01-28T11:40:30.608Z,4.78
2023-01-28T11:42:59.729Z,6.70
2023-01-28T11:45:36.544Z,7.13
2023-01-28T11:48:18.688Z,5.90
2023-01-28T11:50:54.796Z,6.97
2023-01-28T11:53:43.795Z,5.70
2023-01-28T11:56:34.140Z,8.27
2023-01-28T11:59:20.455Z,7.07
2023-01-28T12:01:58.047Z,7.38
2023-01-28T12:04:42.330Z,6.90
2023-01-28T12:07:34.487Z,8.35
2023-01-28T12:10:10.662Z,7.82
2023-01-28T12:13:13.967Z,5.82
2023-01-28T12:16:05.220Z,4.75
2023-01-28T12:18:56.856Z,5.95
2023-01-28T12:21:37.088Z,6.65
2023-01-28T12:24:22.672Z,6.07
2023-01-28T12:26:55.757Z,6.40
2023-01-28T12:29:31.949Z,6.03
2023-01-28T12:32:13.006Z,6.60
2023-01-28T12:35:06.878Z,6.18
2023-01-28T12:37:47.724Z,5.93
2023-01-28T12:40:38.721Z,3.40
2023-01-28T12:43:12.283Z,5.53
2023-01-28T12:45:42.084Z,6.20
2023-01-28T12:48:14.851Z,5.25
2023-01-28T12:50:47.865Z,6.20
2023-01-28T12:53:24.916Z,5.90
2023-01-28T12:55:59.547Z,5.97
2023-01-28T12:58:38.181Z,4.00
2023-01-28T13:01:10.274Z,7.60
2023-01-28T13:03:42.901Z,5.03
2023-01-28T13:06:16.541Z,6.63
2023-01-28T13:08:44.351Z,4.73
2023-01-28T13:11:18.205Z,5.90
2023-01-28T13:13:47.318Z,2.40
2023-01-28T13:16:15.716Z,5.97
2023-01-28T13:18:46.705Z,6.28
2023-01-28T13:21:18.285Z,5.90
2023-01-28T13:23:47.258Z,5.78
2023-01-28T13:26:43.811Z,5.00
2023-01-28T13:29:22.061Z,6.53
2023-01-28T13:31:52.658Z,5.97
2023-01-28T13:34:37.695Z,5.55
2023-01-28T13:37:18.115Z,4.65
2023-01-28T13:39:50.336Z,3.90
2023-01-28T13:42:28.191Z,3.17
2023-01-28T13:44:57.542Z,3.08
2023-01-28T13:47:30.940Z,5.68
2023-01-28T13:50:03.931Z,3.92
2023-01-28T13:52:36.123Z,5.90
2023-01-28T13:55:07.053Z,4.28
2023-01-28T13:58:14.264Z,4.88
2023-01-28T14:01:01.555Z,4.90
2023-01-28T14:04:00.385Z,5.32
2023-01-28T14:07:03.630Z,5.25
2023-01-28T14:09:51.043Z,5.55
2023-01-28T14:13:02.832Z,3.92
2023-01-28T14:15:46.810Z,5.07
2023-01-28T14:18:25.359Z,4.50
2023-01-28T14:20:54.463Z,4.75
2023-01-28T14:23:26.799Z,4.47
2023-01-28T14:26:06.326Z,3.20
2023-01-28T14:28:46.898Z,4.60
2023-01-28T14:31:20.304Z,4.22
2023-01-28T14:33:48.341Z,4.60
2023-01-28T14:36:16.272Z,4.90
2023-01-28T14:38:46.004Z,3.60
2023-01-28T14:41:24.334Z,4.13
2023-01-28T14:43:53.864Z,4.22
2023-01-28T14:46:32.277Z,4.47
2023-01-28T14:49:14.969Z,4.88
2023-01-28T14:51:58.965Z,4.53
2023-01-28T14:54:56.501Z,4.25
2023-01-28T14:57:40.181Z,4.10
2023-01-28T15:00:20.885Z,4.18
2023-01-28T15:02:50.703Z,4.55
2023-01-28T15:05:21.182Z,4.05
2023-01-28T15:07:49.995Z,4.63
2023-01-28T15:10:20.867Z,4.93
2023-01-28T15:12:53.330Z,4.38
2023-01-28T15:15:28.863Z,4.13
2023-01-28T15:18:03.169Z,3.75
2023-01-28T15:20:31.832Z,4.07
2023-01-28T15:23:01.928Z,3.67
2023-01-28T15:25:33.468Z,4.13
2023-01-28T15:28:02.671Z,4.70
2023-01-28T15:30:32.606Z,4.50
2023-01-28T15:33:04.906Z,4.60
2023-01-28T15:35:33.658Z,4.05
2023-01-28T15:38:01.479Z,4.28
2023-01-28T15:40:31.338Z,4.25
2023-01-28T15:42:59.256Z,4.63
2023-01-28T15:45:30.458Z,3.15
2023-01-28T15:48:08.884Z,3.45
2023-01-28T15:50:38.220Z,3.33
2023-01-28T15:53:11.269Z,3.63
2023-01-28T15:55:41.093Z,4.40
2023-01-28T15:58:27.972Z,3.80
2023-01-28T16:01:17.144Z,5.22
2023-01-28T16:03:48.299Z,4.50
2023-01-28T16:06:19.986Z,5.55
2023-01-28T16:08:52.965Z,4.78
2023-01-28T16:11:26.949Z,4.10
2023-01-28T16:13:55.896Z,6.97
2023-01-28T16:16:30.554Z,25.08
2023-01-28T16:19:00.607Z,8.05
2023-01-28T16:21:32.164Z,7.75
2023-01-28T16:24:03.526Z,18.85
2023-01-28T16:26:33.484Z,10.43
2023-01-28T16:29:03.886Z,4.68
2023-01-28T16:31:31.796Z,4.13
2023-01-28T16:34:00.999Z,3.75
2023-01-28T16:36:28.700Z,3.47
2023-01-28T16:38:56.451Z,4.20
2023-01-28T16:41:27.717Z,3.47
2023-01-28T16:43:55.547Z,4.57
2023-01-28T16:46:23.209Z,4.13
2023-01-28T16:48:50.963Z,3.78
2023-01-28T16:51:20.875Z,4.38
2023-01-28T16:53:49.677Z,4.43
2023-01-28T16:56:35.925Z,8.80
2023-01-28T16:59:10.681Z,5.45
2023-01-28T17:01:38.581Z,8.40
2023-01-28T17:04:11.759Z,6.53
2023-01-28T17:09:12.819Z,21.17
2023-01-28T17:11:40.929Z,21.25
2023-01-28T17:14:08.752Z,17.05
2023-01-28T17:16:37.186Z,7.13
2023-01-28T17:19:05.055Z,4.40
2023-01-28T17:21:32.804Z,5.72
2023-01-28T17:24:03.300Z,5.18
2023-01-28T17:26:31.404Z,5.10
2023-01-28T17:28:59.134Z,5.03
2023-01-28T17:31:27.373Z,5.00
2023-01-28T17:33:56.498Z,5.05
2023-01-28T17:36:25.299Z,5.43
2023-01-28T17:38:53.194Z,4.57
2023-01-28T17:41:22.778Z,4.70
2023-01-28T17:43:54.532Z,5.03
2023-01-28T17:46:23.853Z,5.18
2023-01-28T17:48:51.636Z,6.03
2023-01-28T17:51:19.843Z,5.78
2023-01-28T17:53:48.509Z,5.47
2023-01-28T17:56:23.265Z,5.10
2023-01-28T17:58:51.881Z,5.03
2023-01-28T18:01:20.049Z,6.53
2023-01-28T18:03:48.083Z,5.93
2023-01-28T18:06:16.266Z,6.47
2023-01-28T18:08:44.543Z,6.07
2023-01-28T18:11:14.598Z,6.30
2023-01-28T18:13:44.508Z,5.55
2023-01-28T18:16:16.136Z,5.53
2023-01-28T18:18:44.047Z,6.85
2023-01-28T18:21:21.042Z,6.80
2023-01-28T18:23:48.889Z,6.93
2023-01-28T18:26:16.868Z,6.65
2023-01-28T18:28:45.957Z,6.50
2023-01-28T18:31:13.981Z,6.30
2023-01-28T18:33:41.846Z,5.38
2023-01-28T18:36:10.668Z,7.03
2023-01-28T18:38:38.486Z,5.47
2023-01-28T18:41:06.275Z,6.32
2023-01-28T18:43:35.733Z,5.88
2023-01-28T18:46:11.776Z,8.02
2023-01-28T18:48:40.003Z,7.13
2023-01-28T18:51:17.528Z,6.07
2023-01-28T18:53:58.239Z,5.82
2023-01-28T18:56:26.356Z,6.00
2023-01-28T18:58:57.191Z,6.85
2023-01-28T19:01:26.886Z,5.88
2023-01-28T19:03:54.870Z,5.82
2023-01-28T19:06:22.610Z,6.88
2023-01-28T19:08:53.662Z,5.50
2023-01-28T19:11:22.065Z,5.80
2023-01-28T19:13:50.020Z,6.00
2023-01-28T19:16:17.937Z,6.50
2023-01-28T19:18:53.075Z,6.65
2023-01-28T19:21:20.950Z,6.07
2023-01-28T19:23:50.419Z,6.28
2023-01-28T19:26:21.286Z,5.78
2023-01-28T19:28:49.500Z,5.90
2023-01-28T19:31:18.634Z,6.15
2023-01-28T19:33:48.385Z,7.18
2023-01-28T19:36:16.667Z,5.47
2023-01-28T19:38:45.026Z,4.95
2023-01-28T19:41:16.088Z,5.40
2023-01-28T19:43:44.637Z,5.95
2023-01-28T19:46:16.011Z,6.18
2023-01-28T19:48:44.413Z,6.60
2023-01-28T19:51:15.023Z,8.20
2023-01-28T19:53:44.965Z,7.25
2023-01-28T19:56:15.074Z,5.90
2023-01-28T19:58:44.686Z,6.35
2023-01-28T20:01:14.339Z,6.40
2023-01-28T20:03:42.509Z,5.57
2023-01-28T20:06:14.863Z,6.18
2023-01-28T20:08:43.309Z,5.63
2023-01-28T20:11:12.704Z,6.25
2023-01-28T20:13:42.884Z,7.18
2023-01-28T20:16:16.434Z,8.50
2023-01-28T20:18:44.533Z,7.40
2023-01-28T20:21:12.288Z,6.78
2023-01-28T20:23:41.534Z,7.15
2023-01-28T20:26:09.306Z,6.68
2023-01-28T20:28:37.133Z,6.95
2023-01-28T20:31:06.004Z,5.90
2023-01-28T20:33:33.973Z,6.30
2023-01-28T20:36:02.863Z,6.32
2023-01-28T20:38:30.924Z,4.00
2023-01-28T20:41:00.033Z,5.40
2023-01-28T20:43:28.736Z,4.43
2023-01-28T20:46:03.335Z,4.63
2023-01-28T20:51:04.793Z,4.82
2023-01-28T20:53:33.167Z,7.10
2023-01-28T20:56:02.318Z,5.18
2023-01-28T20:58:30.429Z,5.57
2023-01-28T21:01:03.956Z,5.80
2023-01-28T21:03:31.856Z,5.57
2023-01-28T21:05:59.567Z,5.50
2023-01-28T21:08:27.631Z,5.38
2023-01-28T21:10:56.142Z,4.13
2023-01-28T21:13:25.186Z,5.85
2023-01-28T21:15:55.050Z,3.53
2023-01-28T21:18:25.988Z,4.80
2023-01-28T21:20:54.947Z,6.10
2023-01-28T21:23:24.127Z,3.45
2023-01-28T21:25:52.493Z,2.50
2023-01-28T21:28:20.975Z,4.05
2023-01-28T21:30:50.125Z,5.07
2023-01-28T21:33:18.855Z,4.93
2023-01-28T21:35:46.603Z,5.88
2023-01-28T21:38:14.411Z,1.80
2023-01-28T21:40:42.215Z,4.55
2023-01-28T21:43:12.476Z,5.47
2023-01-28T21:45:43.407Z,4.93
2023-01-28T21:48:12.534Z,5.50
2023-01-28T21:50:56.992Z,4.85
2023-01-28T21:53:27.846Z,5.45
2023-01-28T21:55:57.594Z,2.13
2023-01-28T21:58:48.211Z,4.00
2023-01-28T22:01:16.044Z,6.05
2023-01-28T22:03:45.220Z,7.03
2023-01-28T22:06:13.008Z,4.10
2023-01-28T22:08:40.760Z,4.45
2023-01-28T22:11:09.457Z,5.00
2023-01-28T22:13:37.835Z,6.05
2023-01-28T22:16:06.716Z,3.65
2023-01-28T22:18:34.481Z,4.40
2023-01-28T22:21:05.394Z,5.72
2023-01-28T22:23:33.150Z,4.82
2023-01-28T22:26:01.659Z,4.65
2023-01-28T22:28:30.038Z,4.32
2023-01-28T22:31:06.899Z,4.97
2023-01-28T22:33:35.133Z,5.43
2023-01-28T22:36:07.035Z,3.90
2023-01-28T22:38:36.724Z,4.80
2023-01-28T22:41:06.348Z,6.43
2023-01-28T22:43:34.155Z,4.18
2023-01-28T22:46:02.849Z,3.47
2023-01-28T22:48:30.848Z,4.80
2023-01-28T22:51:02.945Z,4.85
2023-01-28T22:53:32.723Z,4.20
2023-01-28T22:56:01.254Z,4.45
2023-01-28T22:58:31.384Z,4.18
2023-01-28T23:00:59.516Z,4.63
2023-01-28T23:03:27.341Z,3.22
2023-01-28T23:05:59.343Z,4.15
2023-01-28T23:08:27.800Z,3.15
2023-01-28T23:10:59.467Z,2.90
2023-01-28T23:13:48.546Z,4.07
2023-01-28T23:16:33.964Z,4.20
2023-01-28T23:19:19.365Z,3.70
2023-01-28T23:22:04.949Z,3.58
2023-01-28T23:24:33.483Z,3.88
2023-01-28T23:27:03.787Z,3.67
2023-01-28T23:29:32.826Z,4.40
2023-01-28T23:32:03.786Z,4.13
2023-01-28T23:34:34.516Z,4.68
2023-01-28T23:37:03.337Z,3.88
2023-01-28T23:39:31.294Z,4.20
2023-01-28T23:41:59.208Z,3.70
2023-01-28T23:44:29.472Z,4.03
2023-01-28T23:46:57.224Z,3.97
2023-01-28T23:49:25.018Z,4.38
2023-01-28T23:51:52.769Z,4.20
2023-01-28T23:54:20.678Z,3.97
2023-01-28T23:56:48.801Z,3.53
2023-01-28T23:59:16.558Z,3.60
